createdAt,value
2022-09-04T00:02:33.960Z,55.62
2022-09-04T00:05:20.282Z,56.77
2022-09-04T00:07:59.795Z,56.44
2022-09-04T00:10:39.194Z,56.92
2022-09-04T00:13:27.698Z,55.93
2022-09-04T00:16:06.876Z,57.18
2022-09-04T00:18:49.219Z,56.51
2022-09-04T00:21:28.961Z,57.00
2022-09-04T00:24:01.914Z,57.24
2022-09-04T00:26:41.616Z,56.54
2022-09-04T00:29:21.357Z,57.91
2022-09-04T00:31:54.965Z,58.05
2022-09-04T00:34:34.347Z,57.93
2022-09-04T00:37:11.396Z,58.37
2022-09-04T00:39:47.743Z,58.28
2022-09-04T00:42:37.671Z,57.87
2022-09-04T00:45:17.404Z,58.05
2022-09-04T00:48:12.231Z,58.60
2022-09-04T00:50:48.725Z,57.74
2022-09-04T00:53:40.161Z,58.80
2022-09-04T00:56:33.207Z,59.36
2022-09-04T00:59:26.235Z,59.40
2022-09-04T01:01:59.940Z,58.15
2022-09-04T01:04:45.557Z,58.44
2022-09-04T01:07:20.725Z,59.33
2022-09-04T01:10:11.054Z,58.89
2022-09-04T01:13:12.922Z,58.50
2022-09-04T01:15:51.148Z,59.12
2022-09-04T01:18:33.011Z,58.56
2022-09-04T01:21:23.494Z,59.12
2022-09-04T01:24:15.230Z,58.06
2022-09-04T01:27:04.046Z,58.21
2022-09-04T01:29:56.682Z,59.48
2022-09-04T01:32:39.093Z,59.88
2022-09-04T01:35:32.353Z,58.87
2022-09-04T01:38:36.137Z,57.88
2022-09-04T01:41:20.943Z,58.35
2022-09-04T01:43:52.609Z,58.05
2022-09-04T01:46:34.860Z,57.65
2022-09-04T01:49:08.507Z,58.71
2022-09-04T01:51:44.552Z,58.35
2022-09-04T01:54:42.464Z,59.38
2022-09-04T01:57:22.011Z,59.08
2022-09-04T02:00:12.776Z,59.05
2022-09-04T02:02:48.923Z,58.90
2022-09-04T02:05:30.324Z,59.01
2022-09-04T02:08:33.110Z,57.56
2022-09-04T02:11:27.816Z,58.59
2022-09-04T02:14:14.339Z,59.57
2022-09-04T02:16:57.019Z,60.16
2022-09-04T02:19:48.735Z,59.71
2022-09-04T02:22:31.273Z,59.88
2022-09-04T02:25:07.791Z,59.38
2022-09-04T02:27:53.494Z,59.08
2022-09-04T02:30:24.634Z,58.86
2022-09-04T02:33:06.850Z,58.76
2022-09-04T02:35:52.479Z,58.67
2022-09-04T02:38:34.984Z,58.52
2022-09-04T02:41:34.546Z,58.55
2022-09-04T02:44:17.306Z,60.28
2022-09-04T02:47:11.744Z,58.84
2022-09-04T02:50:01.921Z,59.28
2022-09-04T02:52:44.278Z,59.34
2022-09-04T02:55:49.673Z,58.99
2022-09-04T02:58:58.532Z,58.02
2022-09-04T03:01:35.129Z,59.66
2022-09-04T03:04:11.756Z,57.97
2022-09-04T03:06:57.152Z,59.95
2022-09-04T03:09:39.709Z,59.94
2022-09-04T03:12:15.122Z,60.16
2022-09-04T03:15:00.786Z,59.98
2022-09-04T03:17:44.802Z,59.60
2022-09-04T03:20:27.953Z,59.41
2022-09-04T03:23:04.091Z,60.84
2022-09-04T03:25:37.754Z,60.99
2022-09-04T03:28:11.295Z,59.84
2022-09-04T03:30:43.040Z,60.70
2022-09-04T03:33:27.318Z,60.79
2022-09-04T03:36:06.999Z,60.02
2022-09-04T03:38:49.706Z,60.46
2022-09-04T03:41:39.630Z,61.42
2022-09-04T03:44:19.226Z,58.78
2022-09-04T03:47:12.160Z,59.33
2022-09-04T03:49:54.582Z,59.50
2022-09-04T03:53:02.214Z,59.66
2022-09-04T03:55:41.622Z,60.26
2022-09-04T03:58:15.157Z,60.38
2022-09-04T04:00:56.345Z,60.55
2022-09-04T04:03:58.486Z,61.16
2022-09-04T04:06:40.995Z,60.17
2022-09-04T04:09:37.122Z,60.00
2022-09-04T04:12:27.353Z,60.10
2022-09-04T04:15:09.160Z,61.29
2022-09-04T04:17:42.688Z,61.45
2022-09-04T04:20:25.109Z,60.85
2022-09-04T04:23:33.704Z,61.53
2022-09-04T04:26:28.371Z,61.56
2022-09-04T04:29:10.948Z,60.88
2022-09-04T04:31:44.769Z,60.85
2022-09-04T04:34:42.543Z,61.20
2022-09-04T04:37:33.477Z,60.96
2022-09-04T04:40:21.933Z,61.98
2022-09-04T04:43:19.837Z,60.84
2022-09-04T04:46:08.481Z,61.88
2022-09-04T04:49:03.134Z,62.22
2022-09-04T04:51:56.157Z,61.93
2022-09-04T04:54:44.352Z,61.78
2022-09-04T04:57:32.735Z,62.47
2022-09-04T05:00:26.793Z,61.99
2022-09-04T05:03:13.423Z,61.16
2022-09-04T05:05:54.054Z,62.24
2022-09-04T05:08:48.071Z,60.32
2022-09-04T05:11:33.621Z,61.66
2022-09-04T05:14:12.700Z,62.40
2022-09-04T05:17:16.278Z,62.05
2022-09-04T05:19:52.626Z,62.13
2022-09-04T05:22:35.185Z,61.73
2022-09-04T05:25:28.128Z,62.00
2022-09-04T05:28:17.063Z,62.07
2022-09-04T05:30:57.074Z,60.75
2022-09-04T05:33:47.330Z,61.61
2022-09-04T05:36:40.332Z,62.14
2022-09-04T05:39:16.949Z,61.85
2022-09-04T05:42:23.773Z,59.84
2022-09-04T05:45:00.152Z,61.57
2022-09-04T05:47:50.463Z,60.49
2022-09-04T05:50:24.009Z,61.42
2022-09-04T05:53:23.158Z,61.13
2022-09-04T05:56:28.603Z,61.24
2022-09-04T05:59:02.261Z,61.83
2022-09-04T06:01:55.417Z,62.43
2022-09-04T06:04:51.712Z,61.45
2022-09-04T06:07:36.583Z,61.21
2022-09-04T06:10:19.122Z,61.73
2022-09-04T06:13:07.550Z,62.39
2022-09-04T06:15:50.169Z,61.36
2022-09-04T06:18:38.975Z,60.05
2022-09-04T06:21:15.458Z,59.87
2022-09-04T06:23:54.802Z,58.69
2022-09-04T06:26:28.432Z,59.25
2022-09-04T06:29:19.351Z,59.31
2022-09-04T06:32:23.525Z,60.57
2022-09-04T06:35:09.502Z,61.38
2022-09-04T06:37:51.949Z,60.55
2022-09-04T06:40:48.025Z,61.15
2022-09-04T06:43:26.469Z,59.51
2022-09-04T06:46:06.942Z,61.80
2022-09-04T06:48:49.438Z,60.91
2022-09-04T06:51:39.575Z,61.67
2022-09-04T06:54:25.386Z,61.56
2022-09-04T06:57:12.672Z,60.97
2022-09-04T07:00:07.019Z,61.39
2022-09-04T07:02:49.920Z,61.39
2022-09-04T07:05:26.256Z,62.42
2022-09-04T07:08:17.805Z,62.34
2022-09-04T07:10:51.343Z,62.03
2022-09-04T07:13:41.337Z,61.57
2022-09-04T07:16:37.626Z,62.39
2022-09-04T07:19:33.806Z,62.20
2022-09-04T07:22:25.309Z,60.30
2022-09-04T07:25:01.879Z,60.96
2022-09-04T07:27:52.628Z,60.67
2022-09-04T07:30:25.965Z,61.32
2022-09-04T07:33:02.458Z,60.72
2022-09-04T07:35:38.644Z,61.40
2022-09-04T07:38:50.459Z,61.12
2022-09-04T07:41:46.675Z,60.84
2022-09-04T07:44:29.125Z,60.98
2022-09-04T07:47:14.311Z,60.62
2022-09-04T07:50:21.170Z,60.04
2022-09-04T07:53:08.339Z,61.37
2022-09-04T07:55:49.114Z,59.77
2022-09-04T07:58:45.643Z,60.56
2022-09-04T08:01:25.205Z,60.43
2022-09-04T08:04:21.421Z,60.33
2022-09-04T08:06:54.947Z,60.30
2022-09-04T08:09:44.749Z,60.85
2022-09-04T08:12:51.673Z,59.85
2022-09-04T08:15:43.528Z,59.43
2022-09-04T08:18:41.783Z,60.24
2022-09-04T08:21:31.922Z,59.90
2022-09-04T08:24:23.759Z,59.80
2022-09-04T08:27:13.970Z,59.51
2022-09-04T08:30:08.633Z,59.97
2022-09-04T08:33:01.655Z,59.22
2022-09-04T08:35:37.973Z,60.05
2022-09-04T08:38:20.317Z,60.21
2022-09-04T08:41:08.816Z,58.27
2022-09-04T08:44:06.868Z,59.36
2022-09-04T08:47:00.081Z,59.49
2022-09-04T08:50:05.298Z,57.14
2022-09-04T08:53:03.979Z,57.64
2022-09-04T08:55:49.798Z,58.13
2022-09-04T08:58:56.548Z,57.50
2022-09-04T09:01:48.362Z,57.37
2022-09-04T09:04:57.202Z,56.47
2022-09-04T09:07:54.978Z,55.40
2022-09-04T09:10:40.581Z,56.02
2022-09-04T09:13:32.323Z,55.79
2022-09-04T09:16:20.491Z,56.17
2022-09-04T09:18:54.102Z,55.39
2022-09-04T09:21:49.441Z,55.37
2022-09-04T09:24:28.298Z,53.21
2022-09-04T09:27:14.107Z,52.95
2022-09-04T09:30:04.358Z,52.25
2022-09-04T09:33:08.272Z,50.95
2022-09-04T09:36:12.118Z,51.02
2022-09-04T09:38:48.635Z,50.06
2022-09-04T09:41:48.035Z,50.63
2022-09-04T09:44:21.838Z,50.22
2022-09-04T09:47:24.012Z,50.73
2022-09-04T09:50:12.605Z,51.27
2022-09-04T09:52:48.645Z,51.42
2022-09-04T09:55:41.768Z,51.54
2022-09-04T09:58:33.538Z,51.32
2022-09-04T10:01:32.666Z,51.45
2022-09-04T10:04:38.279Z,50.41
2022-09-04T10:07:16.026Z,50.65
2022-09-04T10:10:06.080Z,50.31
2022-09-04T10:12:51.517Z,50.25
2022-09-04T10:15:58.616Z,50.51
2022-09-04T10:18:56.052Z,50.55
2022-09-04T10:21:32.113Z,49.64
2022-09-04T10:24:10.217Z,50.41
2022-09-04T10:26:49.297Z,50.68
2022-09-04T10:29:55.952Z,50.13
2022-09-04T10:33:00.523Z,48.89
2022-09-04T10:35:40.143Z,48.55
2022-09-04T10:38:30.493Z,48.36
2022-09-04T10:41:21.941Z,49.37
2022-09-04T10:44:15.250Z,48.26
2022-09-04T10:47:08.250Z,48.63
2022-09-04T10:50:02.788Z,46.64
2022-09-04T10:53:00.502Z,46.60
2022-09-04T10:55:43.933Z,45.61
2022-09-04T10:58:26.311Z,44.60
2022-09-04T11:01:26.916Z,44.96
2022-09-04T11:04:08.260Z,44.90
2022-09-04T11:06:57.726Z,45.91
2022-09-04T11:09:37.196Z,46.23
2022-09-04T11:12:25.693Z,47.76
2022-09-04T11:15:05.131Z,46.48
2022-09-04T11:17:56.904Z,46.09
2022-09-04T11:20:46.824Z,46.81
2022-09-04T11:23:37.161Z,46.50
2022-09-04T11:26:46.164Z,45.22
2022-09-04T11:29:22.485Z,41.91
2022-09-04T11:32:06.590Z,36.31
2022-09-04T11:34:57.160Z,33.54
2022-09-04T11:37:47.134Z,30.66
2022-09-04T11:40:32.413Z,28.32
2022-09-04T11:43:19.118Z,27.34
2022-09-04T11:46:27.252Z,26.93
2022-09-04T11:49:22.689Z,25.46
2022-09-04T11:52:04.923Z,25.48
2022-09-04T11:54:56.486Z,24.82
2022-09-04T11:57:46.635Z,24.10
2022-09-04T12:00:19.027Z,23.74
2022-09-04T12:03:15.780Z,23.81
2022-09-04T12:06:09.465Z,25.22
2022-09-04T12:09:00.690Z,25.11
2022-09-04T12:12:00.971Z,24.05
2022-09-04T12:14:43.572Z,24.88
2022-09-04T12:17:26.286Z,26.18
2022-09-04T12:20:24.118Z,28.97
2022-09-04T12:23:03.848Z,30.84
2022-09-04T12:25:46.146Z,33.02
2022-09-04T12:28:36.569Z,33.51
2022-09-04T12:31:18.741Z,34.46
2022-09-04T12:34:04.379Z,36.39
2022-09-04T12:36:41.139Z,37.64
2022-09-04T12:39:20.518Z,37.07
2022-09-04T12:42:15.173Z,37.49
2022-09-04T12:44:58.493Z,38.61
2022-09-04T12:47:57.298Z,38.53
2022-09-04T12:50:50.788Z,38.50
2022-09-04T12:53:37.065Z,39.10
2022-09-04T12:56:26.216Z,39.18
2022-09-04T12:59:02.812Z,38.37
2022-09-04T13:01:48.606Z,37.86
2022-09-04T13:04:27.472Z,39.01
2022-09-04T13:07:07.078Z,39.38
2022-09-04T13:09:58.563Z,39.04
2022-09-04T13:12:37.757Z,39.51
2022-09-04T13:15:35.513Z,40.03
2022-09-04T13:18:27.329Z,39.54
2022-09-04T13:21:18.381Z,38.87
2022-09-04T13:24:10.781Z,39.39
2022-09-04T13:26:44.388Z,40.38
2022-09-04T13:29:29.916Z,39.66
2022-09-04T13:32:13.030Z,39.37
2022-09-04T13:35:04.554Z,40.29
2022-09-04T13:37:57.936Z,40.11
2022-09-04T13:40:35.836Z,40.01
2022-09-04T13:43:26.184Z,40.24
2022-09-04T13:45:59.477Z,38.90
2022-09-04T13:48:47.553Z,40.37
2022-09-04T13:51:23.171Z,39.09
2022-09-04T13:54:16.449Z,38.13
2022-09-04T13:57:20.404Z,38.49
2022-09-04T13:59:53.810Z,39.51
2022-09-04T14:02:27.458Z,39.22
2022-09-04T14:05:39.653Z,38.34
2022-09-04T14:07:49.980Z,37.78
2022-09-04T14:10:26.403Z,37.05
2022-09-04T14:13:02.582Z,38.19
2022-09-04T14:16:06.590Z,37.26
2022-09-04T14:18:59.178Z,37.78
2022-09-04T14:21:35.487Z,38.38
2022-09-04T14:24:25.787Z,38.72
2022-09-04T14:26:59.541Z,38.09
2022-09-04T14:29:41.817Z,37.58
2022-09-04T14:32:43.814Z,40.02
2022-09-04T14:35:28.267Z,39.02
2022-09-04T14:38:21.690Z,39.31
2022-09-04T14:41:10.285Z,40.12
2022-09-04T14:43:49.506Z,40.20
2022-09-04T14:46:24.754Z,39.75
2022-09-04T14:49:04.377Z,41.06
2022-09-04T14:51:43.552Z,40.20
2022-09-04T14:54:25.852Z,40.50
2022-09-04T14:56:59.400Z,39.94
2022-09-04T14:59:35.876Z,40.76
2022-09-04T15:02:15.343Z,40.08
2022-09-04T15:05:01.389Z,39.91
2022-09-04T15:07:43.822Z,39.80
2022-09-04T15:10:32.968Z,40.55
2022-09-04T15:13:33.469Z,40.41
2022-09-04T15:16:20.065Z,39.98
2022-09-04T15:18:59.406Z,40.11
2022-09-04T15:21:38.759Z,40.71
2022-09-04T15:24:30.738Z,41.16
2022-09-04T15:27:17.208Z,41.36
2022-09-04T15:29:56.484Z,41.45
2022-09-04T15:32:30.892Z,42.35
2022-09-04T15:35:23.164Z,42.17
2022-09-04T15:38:05.940Z,41.67
2022-09-04T15:40:59.724Z,41.33
2022-09-04T15:43:19.690Z,42.19
2022-09-04T15:45:56.251Z,42.50
2022-09-04T15:48:45.035Z,42.36
2022-09-04T15:51:35.195Z,42.75
2022-09-04T15:54:21.306Z,42.76
2022-09-04T15:57:01.144Z,43.47
2022-09-04T15:59:40.437Z,44.25
2022-09-04T16:02:35.479Z,43.61
2022-09-04T16:05:23.955Z,42.91
2022-09-04T16:08:01.589Z,42.87
2022-09-04T16:10:44.931Z,45.02
2022-09-04T16:13:30.470Z,42.74
2022-09-04T16:16:12.614Z,43.97
2022-09-04T16:19:18.106Z,43.79
2022-09-04T16:22:09.843Z,42.28
2022-09-04T16:24:46.357Z,42.49
2022-09-04T16:27:22.737Z,42.01
2022-09-04T16:30:02.980Z,41.87
2022-09-04T16:32:35.946Z,42.05
2022-09-04T16:35:13.625Z,41.51
2022-09-04T16:38:06.405Z,44.73
2022-09-04T16:40:42.616Z,45.17
2022-09-04T16:43:18.835Z,48.82
2022-09-04T16:45:55.309Z,43.79
2022-09-04T16:48:47.074Z,45.70
2022-09-04T16:51:41.413Z,46.23
2022-09-04T16:54:29.003Z,47.05
2022-09-04T16:57:12.127Z,48.96
2022-09-04T16:59:46.411Z,47.75
2022-09-04T17:02:36.409Z,46.79
2022-09-04T17:05:14.798Z,45.97
2022-09-04T17:07:59.313Z,48.22
2022-09-04T17:10:36.160Z,48.88
2022-09-04T17:13:10.226Z,48.25
2022-09-04T17:16:00.429Z,48.02
2022-09-04T17:18:32.181Z,48.53
2022-09-04T17:24:10.773Z,50.49
2022-09-04T17:28:52.135Z,52.37
2022-09-04T17:29:09.738Z,49.27
2022-09-04T17:29:33.708Z,48.94
2022-09-04T17:31:38.835Z,49.51
2022-09-04T17:40:39.024Z,50.86
2022-09-04T17:40:48.847Z,48.98
2022-09-04T17:40:49.877Z,50.00
2022-09-04T17:42:28.326Z,50.37
2022-09-04T17:45:04.813Z,51.59
2022-09-04T17:47:44.255Z,51.55
2022-09-04T17:50:25.303Z,51.54
2022-09-04T17:52:58.843Z,52.63
2022-09-04T17:55:39.173Z,54.20
2022-09-04T17:58:26.468Z,52.76
2022-09-04T18:01:14.159Z,53.28
2022-09-04T18:04:19.818Z,53.24
2022-09-04T18:06:39.194Z,51.77
2022-09-04T18:09:26.567Z,53.25
2022-09-04T18:12:09.252Z,52.52
2022-09-04T18:15:32.848Z,51.96
2022-09-04T18:17:31.633Z,54.31
2022-09-04T18:20:17.218Z,54.42
2022-09-04T18:23:12.223Z,52.75
2022-09-04T18:25:45.787Z,53.68
2022-09-04T18:28:32.220Z,53.52
2022-09-04T18:37:10.332Z,54.57
2022-09-04T18:37:20.412Z,54.15
2022-09-04T18:37:25.851Z,54.56
2022-09-04T18:39:15.686Z,55.71
2022-09-04T18:49:10.326Z,55.19
2022-09-04T18:50:32.849Z,55.15
2022-09-04T18:50:33.447Z,54.90
2022-09-04T18:50:49.096Z,53.86
2022-09-04T18:52:55.531Z,55.81
2022-09-04T18:55:34.783Z,55.93
2022-09-04T18:58:14.011Z,55.95
2022-09-04T19:00:51.884Z,53.92
2022-09-04T19:03:28.175Z,54.88
2022-09-04T19:06:01.675Z,55.67
2022-09-04T19:08:35.356Z,55.15
2022-09-04T19:11:20.827Z,54.01
2022-09-04T19:14:10.795Z,55.32
2022-09-04T19:16:44.664Z,56.05
2022-09-04T19:19:34.159Z,54.83
2022-09-04T19:22:16.545Z,56.01
2022-09-04T19:25:02.071Z,56.31
2022-09-04T19:27:35.748Z,55.50
2022-09-04T19:30:18.224Z,55.67
2022-09-04T19:33:00.484Z,55.81
2022-09-04T19:35:37.089Z,54.98
2022-09-04T19:45:03.692Z,56.27
2022-09-04T19:45:56.432Z,55.71
2022-09-04T19:46:17.662Z,55.19
2022-09-04T19:46:40.096Z,56.35
2022-09-04T19:50:53.953Z,57.94
2022-09-04T19:53:35.190Z,57.58
2022-09-04T19:54:59.842Z,56.15
2022-09-04T19:57:44.853Z,55.57
2022-09-04T20:00:42.378Z,55.30
2022-09-04T20:03:05.042Z,55.94
2022-09-04T20:05:39.946Z,56.27
2022-09-04T20:08:19.226Z,55.55
2022-09-04T20:10:52.801Z,56.49
2022-09-04T20:13:41.159Z,55.69
2022-09-04T20:16:21.910Z,56.70
2022-09-04T20:19:12.071Z,57.64
2022-09-04T20:21:50.244Z,58.41
2022-09-04T20:24:26.721Z,57.98
2022-09-04T20:27:00.345Z,58.64
2022-09-04T20:29:54.603Z,57.00
2022-09-04T20:32:24.229Z,58.21
2022-09-04T20:35:13.639Z,56.55
2022-09-04T20:37:47.936Z,57.54
2022-09-04T20:40:27.007Z,58.02
2022-09-04T20:43:15.642Z,57.92
2022-09-04T20:49:00.923Z,57.50
2022-09-04T20:52:44.635Z,58.46
2022-09-04T20:52:51.376Z,57.94
2022-09-04T20:54:23.378Z,58.18
2022-09-04T21:00:32.782Z,57.28
2022-09-04T21:03:11.154Z,56.91
2022-09-04T21:03:23.855Z,57.06
2022-09-04T21:05:40.413Z,56.19
2022-09-04T21:08:20.188Z,57.17
2022-09-04T21:10:59.514Z,57.72
2022-09-04T21:13:41.780Z,57.33
2022-09-04T21:16:33.776Z,57.06
2022-09-04T21:19:41.557Z,57.39
2022-09-04T21:22:32.560Z,58.05
2022-09-04T21:24:56.659Z,57.51
2022-09-04T21:28:03.685Z,57.18
2022-09-04T21:30:55.110Z,57.36
2022-09-04T21:33:34.479Z,58.10
2022-09-04T21:36:26.233Z,57.29
2022-09-04T21:39:05.407Z,57.68
2022-09-04T21:41:39.000Z,58.16
2022-09-04T21:44:30.779Z,57.02
2022-09-04T21:47:10.533Z,56.93
2022-09-04T21:50:00.663Z,57.52
2022-09-04T21:52:49.163Z,58.69
2022-09-04T21:57:28.818Z,56.70
2022-09-04T22:02:27.649Z,56.38
2022-09-04T22:02:36.339Z,57.00
2022-09-04T22:03:52.400Z,57.87
2022-09-04T22:08:08.439Z,56.63
2022-09-04T22:13:29.336Z,57.02
2022-09-04T22:13:43.500Z,56.75
2022-09-04T22:15:13.916Z,58.01
2022-09-04T22:18:06.696Z,57.40
2022-09-04T22:20:54.795Z,57.46
2022-09-04T22:23:40.288Z,58.51
2022-09-04T22:26:28.736Z,58.49
2022-09-04T22:29:26.780Z,56.89
2022-09-04T22:32:20.340Z,57.77
2022-09-04T22:35:10.121Z,57.08
2022-09-04T22:37:43.729Z,57.96
2022-09-04T22:40:56.048Z,58.64
2022-09-04T22:43:17.034Z,59.26
2022-09-04T22:46:08.573Z,58.31
2022-09-04T22:48:47.916Z,58.18
2022-09-04T22:51:23.129Z,58.06
2022-09-04T22:54:02.716Z,58.69
2022-09-04T22:57:00.617Z,59.75
2022-09-04T22:59:46.224Z,59.68
2022-09-04T23:03:07.157Z,59.00
2022-09-04T23:05:34.356Z,58.22
2022-09-04T23:13:49.924Z,59.14
2022-09-04T23:13:56.230Z,59.30
2022-09-04T23:13:57.317Z,59.59
2022-09-04T23:16:33.658Z,59.84
2022-09-04T23:24:00.066Z,58.83
2022-09-04T23:26:42.225Z,59.32
2022-09-04T23:26:45.677Z,58.69
2022-09-04T23:27:28.297Z,58.95
2022-09-04T23:30:15.261Z,59.89
2022-09-04T23:33:27.919Z,60.60
2022-09-04T23:36:33.612Z,59.62
2022-09-04T23:39:07.151Z,60.41
2022-09-04T23:42:04.737Z,60.53
2022-09-04T23:44:54.867Z,60.00
2022-09-04T23:47:49.859Z,60.05
2022-09-04T23:50:47.576Z,60.63
2022-09-04T23:53:39.564Z,61.30
2022-09-04T23:56:28.199Z,59.70
2022-09-04T23:59:36.466Z,60.84
